14°C Temp
12°C Dewpoint
88% Humidity
Temperature
5 KM/H
3 MPH
3 KTS
220°
South West

Wind Speed
Clear
Conditions
Pressure 1024.92 (hPa) - 30.27 (in)
Visibility 6.2 (mi) - 10.0 (km)

Current Conditions
LIPR
Location 4(km)
Metar :LIPR 070450Z AUTO 22003KT 9999 NCD 14/12 Q1025
Fri 7th October 06:50 am

Airport
  Metar Aviation API Data Provided by https://www.checkwx.com/ PHP scripts by weather34.com ©2022